Time;durP1;ratioP1;P1;durP2;ratioP2;P2;SDS_P1;SDS_P2;PMS_P1;PMS_P2;Temp;Humidity;BMP_temperature;BMP_pressure;BME280_temperature;BME280_humidity;BME280_pressure;Samples;Min_cycle;Max_cycle;Signal;HPM_P1;HPM_P2
2023/07/10 00:01:04;;;;;;;10.63;4.35;;;;;;;18.67;100.00;101764.94;5111440;28;20074;-79
2023/07/10 00:06:51;;;;;;;7.55;3.70;;;;;;;18.65;100.00;101767.88;5111858;28;20530;-79
2023/07/10 00:12:39;;;;;;;10.38;3.83;;;;;;;18.63;100.00;101764.59;5111271;28;20373;-80
2023/07/10 00:15:20;;;;;;;9.57;3.60;;;;;;;18.58;100.00;101759.88;5092534;28;20043;-82
2023/07/10 00:21:08;;;;;;;7.93;4.07;;;;;;;18.58;100.00;101775.31;5111148;28;20058;-81
2023/07/10 00:26:55;;;;;;;10.23;4.03;;;;;;;18.48;100.00;101767.00;5110994;28;20047;-80
2023/07/10 00:32:44;;;;;;;9.55;3.42;;;;;;;18.13;100.00;101759.88;5111205;28;20051;-79
2023/07/10 00:38:31;;;;;;;8.43;4.03;;;;;;;18.12;100.00;101769.06;5113949;28;20043;-80
2023/07/10 00:44:22;;;;;;;8.23;3.70;;;;;;;18.10;100.00;101765.75;5114580;28;20288;-80
2023/07/10 00:50:26;;;;;;;7.88;4.13;;;;;;;17.95;100.00;101781.72;5114748;28;20078;-79
2023/07/10 00:59:41;;;;;;;9.15;3.75;;;;;;;17.96;100.00;101780.66;5114455;28;20042;-80
2023/07/10 01:05:31;;;;;;;7.25;4.22;;;;;;;18.03;100.00;101764.28;5114388;28;20085;-80
2023/07/10 01:11:19;;;;;;;11.05;3.88;;;;;;;17.98;100.00;101775.81;5114585;28;20047;-80
2023/07/10 01:17:07;;;;;;;7.72;3.83;;;;;;;18.01;100.00;101786.16;5114170;28;20129;-80
2023/07/10 01:19:35;;;;;;;9.18;4.03;;;;;;;17.99;100.00;101782.88;5095790;28;20472;-79
2023/07/10 01:22:01;;;;;;;8.82;3.28;;;;;;;17.98;100.00;101777.72;5095141;28;20400;-80
2023/07/10 01:27:48;;;;;;;7.95;3.80;;;;;;;17.89;100.00;101775.34;5113494;28;20101;-81
2023/07/10 01:33:41;;;;;;;7.45;3.35;;;;;;;17.99;100.00;101774.75;5114412;28;20762;-80
2023/07/10 01:39:36;;;;;;;5.78;3.20;;;;;;;18.05;100.00;101762.97;5114376;28;20510;-81
2023/07/10 01:42:01;;;;;;;6.72;3.30;;;;;;;18.04;100.00;101750.50;5112979;28;20074;-80
2023/07/10 01:44:33;;;;;;;8.27;3.15;;;;;;;18.11;100.00;101753.88;5113824;28;20481;-80
2023/07/10 01:47:00;;;;;;;5.85;3.35;;;;;;;18.11;100.00;101762.00;5113192;28;20066;-80
2023/07/10 01:52:47;;;;;;;6.60;3.60;;;;;;;17.98;100.00;101775.81;5113959;28;20104;-81
2023/07/10 01:55:17;;;;;;;8.33;3.73;;;;;;;17.92;100.00;101777.59;5112735;28;20114;-81
2023/07/10 02:01:04;;;;;;;7.13;3.70;;;;;;;17.88;100.00;101751.25;5113642;28;20047;-82
2023/07/10 02:03:29;;;;;;;8.63;3.58;;;;;;;17.87;100.00;101763.94;5095110;28;20419;-81
2023/07/10 02:09:16;;;;;;;7.43;3.42;;;;;;;17.65;100.00;101766.47;5113349;28;20312;-82
2023/07/10 02:11:42;;;;;;;5.45;3.20;;;;;;;17.62;100.00;101771.50;5113231;28;20487;-82
2023/07/10 02:14:08;;;;;;;7.38;3.40;;;;;;;17.50;100.00;101768.00;5112344;28;20123;-81
2023/07/10 02:19:55;;;;;;;6.47;3.00;;;;;;;17.34;100.00;101769.53;5113280;28;20089;-80
2023/07/10 02:22:20;;;;;;;6.50;2.97;;;;;;;17.34;100.00;101780.34;5094962;28;20028;-81
2023/07/10 02:24:45;;;;;;;7.67;3.10;;;;;;;17.31;100.00;101780.81;5094811;28;20374;-82
2023/07/10 02:27:11;;;;;;;5.80;3.28;;;;;;;17.24;100.00;101790.94;5112205;28;20292;-83
2023/07/10 02:32:58;;;;;;;6.90;4.38;;;;;;;17.20;100.00;101800.59;5112166;28;20272;-81
2023/07/10 02:35:23;;;;;;;8.03;4.27;;;;;;;17.14;100.00;101793.41;5094568;28;20027;-81
2023/07/10 02:37:48;;;;;;;9.07;3.83;;;;;;;17.06;100.00;101793.75;5094567;28;20290;-80
2023/07/10 02:40:14;;;;;;;8.20;4.40;;;;;;;17.06;100.00;101804.56;5111780;28;20301;-79
2023/07/10 02:42:39;;;;;;;6.47;3.57;;;;;;;16.99;100.00;101800.09;5094495;28;20273;-78
2023/07/10 02:48:26;;;;;;;7.05;3.50;;;;;;;16.94;100.00;101799.13;5113238;28;20383;-81
2023/07/10 02:54:14;;;;;;;7.90;3.83;;;;;;;16.85;100.00;101795.97;5112772;28;20038;-78
2023/07/10 03:00:01;;;;;;;8.30;3.83;;;;;;;16.84;100.00;101798.91;5112592;28;20047;-80
2023/07/10 03:02:26;;;;;;;8.50;3.63;;;;;;;16.82;100.00;101795.59;5094265;28;20020;-80
2023/07/10 03:08:13;;;;;;;7.93;4.03;;;;;;;16.78;100.00;101802.53;5112466;28;20478;-80
2023/07/10 03:14:02;;;;;;;9.07;5.25;;;;;;;16.65;100.00;101807.03;5112485;28;20617;-78
2023/07/10 03:19:50;;;;;;;12.18;5.57;;;;;;;16.62;100.00;101810.19;5112576;28;20038;-77
2023/07/10 03:22:15;;;;;;;12.45;7.07;;;;;;;16.63;100.00;101816.41;5112303;28;20028;-76
2023/07/10 03:24:40;;;;;;;12.47;7.03;;;;;;;16.66;100.00;101822.22;5111299;28;20067;-78
2023/07/10 03:30:58;;;;;;;13.18;7.93;;;;;;;16.70;100.00;101822.56;5112020;28;20352;-75
2023/07/10 03:36:45;;;;;;;13.02;8.40;;;;;;;16.65;100.00;101825.13;5112256;28;20051;-76
2023/07/10 03:39:12;;;;;;;12.38;9.15;;;;;;;16.61;100.00;101830.16;5093608;28;20031;-77
2023/07/10 03:41:38;;;;;;;13.65;8.63;;;;;;;16.59;100.00;101828.75;5111906;28;20441;-77
2023/07/10 03:44:04;;;;;;;15.65;9.15;;;;;;;16.56;100.00;101830.03;5092984;28;20044;-79
2023/07/10 03:49:51;;;;;;;12.25;8.00;;;;;;;16.55;100.00;101832.97;5112148;28;20149;-79
2023/07/10 03:55:51;;;;;;;14.75;8.10;;;;;;;16.57;100.00;101833.53;5112156;28;20043;-79
2023/07/10 04:01:39;;;;;;;12.20;7.32;;;;;;;16.51;100.00;101835.28;5111692;28;20047;-80
2023/07/10 04:04:04;;;;;;;11.95;7.20;;;;;;;16.52;100.00;101841.53;5092898;28;20134;-80
2023/07/10 04:09:52;;;;;;;10.70;7.63;;;;;;;16.52;100.00;101853.13;5111072;28;20515;-80
2023/07/10 04:12:17;;;;;;;11.90;7.35;;;;;;;16.52;100.00;101855.03;5094376;28;20539;-80
2023/07/10 04:14:42;;;;;;;15.30;8.07;;;;;;;16.57;100.00;101855.16;5096926;28;20038;-79
2023/07/10 04:17:08;;;;;;;14.57;8.83;;;;;;;16.56;100.00;101864.31;5114343;28;20289;-80
2023/07/10 04:19:33;;;;;;;11.70;7.88;;;;;;;16.60;100.00;101866.31;5096955;28;20814;-80
2023/07/10 04:21:58;;;;;;;11.13;7.75;;;;;;;16.67;100.00;101858.16;5115208;28;20031;-79
2023/07/10 04:24:24;;;;;;;16.73;7.82;;;;;;;16.72;100.00;101845.59;5114163;28;20471;-78
2023/07/10 04:30:11;;;;;;;9.18;7.38;;;;;;;16.93;100.00;101857.75;5115070;28;20671;-76
2023/07/10 04:32:37;;;;;;;11.32;7.55;;;;;;;17.08;100.00;101861.91;5114798;28;20391;-79
2023/07/10 04:38:27;;;;;;;12.52;6.60;;;;;;;17.51;100.00;101865.13;5115269;28;20096;-79
2023/07/10 04:44:14;;;;;;;13.32;8.02;;;;;;;17.86;100.00;101854.31;5114920;28;20046;-80
2023/07/10 04:46:41;;;;;;;10.90;7.37;;;;;;;18.01;100.00;101864.66;5096266;28;20028;-78
2023/07/10 04:56:05;;;;;;;11.38;7.32;;;;;;;18.51;100.00;101872.19;5114758;28;20037;-81
2023/07/10 05:01:52;;;;;;;14.52;8.23;;;;;;;18.64;100.00;101882.75;5114294;28;20057;-80
2023/07/10 05:04:17;;;;;;;14.13;8.25;;;;;;;18.72;100.00;101873.41;5095617;28;20032;-80
2023/07/10 05:06:42;;;;;;;12.77;7.95;;;;;;;18.86;100.00;101878.28;5114251;28;20471;-80
2023/07/10 05:09:08;;;;;;;14.00;8.53;;;;;;;18.97;100.00;101875.75;5095260;28;20048;-79
2023/07/10 05:11:33;;;;;;;14.10;8.68;;;;;;;19.08;100.00;101877.56;5095915;28;20320;-81
2023/07/10 05:17:21;;;;;;;13.00;7.82;;;;;;;19.68;100.00;101888.63;5114450;28;20038;-80
2023/07/10 05:19:46;;;;;;;13.73;7.93;;;;;;;19.92;100.00;101883.78;5113894;28;20084;-78
2023/07/10 05:25:33;;;;;;;13.40;8.80;;;;;;;20.77;100.00;101895.97;5113983;28;20276;-83
2023/07/10 05:31:20;;;;;;;10.02;7.70;;;;;;;21.69;100.00;101900.34;5114141;28;20034;-82
2023/07/10 05:37:08;;;;;;;15.18;7.82;;;;;;;22.27;100.00;101903.94;5114145;28;20035;-79
2023/07/10 05:42:55;;;;;;;11.57;8.05;;;;;;;22.70;100.00;101901.88;5114076;28;20038;-78
2023/07/10 05:48:42;;;;;;;13.73;7.85;;;;;;;23.17;98.11;101886.16;5113291;28;20054;-80
2023/07/10 05:54:29;;;;;;;12.88;7.57;;;;;;;23.87;93.40;101896.47;5113546;28;20482;-80
2023/07/10 06:00:16;;;;;;;11.60;6.18;;;;;;;24.81;88.82;101889.22;5113678;28;20046;-83
2023/07/10 06:02:41;;;;;;;11.50;6.88;;;;;;;25.05;86.11;101908.53;5094546;28;20039;-80
2023/07/10 06:05:07;;;;;;;10.60;5.90;;;;;;;25.29;85.33;101903.94;5094948;28;20463;-81
2023/07/10 06:07:32;;;;;;;12.25;7.07;;;;;;;25.65;84.21;101904.44;5095105;28;20118;-80
2023/07/10 06:09:58;;;;;;;11.10;6.47;;;;;;;25.94;80.60;101904.41;5094388;28;20480;-78
2023/07/10 06:12:23;;;;;;;10.17;6.23;;;;;;;25.91;79.54;101903.09;5095107;28;20023;-80
2023/07/10 06:21:32;;;;;;;12.00;6.60;;;;;;;26.69;76.17;101910.09;5113171;28;20510;-79
2023/07/10 06:27:19;;;;;;;11.63;5.82;;;;;;;26.82;70.55;101908.50;5113132;28;20124;-79
2023/07/10 06:29:44;;;;;;;8.98;5.50;;;;;;;27.02;71.52;101915.66;5112062;28;20051;-78
2023/07/10 06:32:09;;;;;;;9.40;6.25;;;;;;;27.16;69.73;101920.06;5094659;28;20031;-79
2023/07/10 06:34:35;;;;;;;11.45;6.22;;;;;;;27.16;68.83;101925.56;5094127;28;20034;-79
2023/07/10 06:37:00;;;;;;;12.33;5.83;;;;;;;27.31;68.24;101929.19;5111785;28;20533;-80
2023/07/10 06:39:26;;;;;;;10.60;6.17;;;;;;;27.67;66.36;101934.91;5094636;28;20015;-81
2023/07/10 06:45:14;;;;;;;9.73;5.78;;;;;;;27.74;65.12;101918.84;5113378;28;20049;-82
2023/07/10 06:51:00;;;;;;;9.73;5.35;;;;;;;28.86;61.03;101938.56;5112971;28;20103;-80
2023/07/10 06:56:48;;;;;;;9.70;5.28;;;;;;;29.44;57.91;101938.53;5112582;28;20560;-79
2023/07/10 07:02:35;;;;;;;9.20;5.43;;;;;;;29.89;55.82;101944.78;5112619;28;20054;-77
2023/07/10 07:05:03;;;;;;;9.20;5.38;;;;;;;30.10;54.75;101947.84;5094059;28;20020;-77
2023/07/10 07:10:52;;;;;;;12.45;5.47;;;;;;;29.62;55.41;101938.66;5112460;28;20130;-78
2023/07/10 07:13:18;;;;;;;8.88;5.65;;;;;;;30.02;54.37;101939.47;5093892;28;20028;-78
2023/07/10 07:19:05;;;;;;;8.32;4.82;;;;;;;30.77;51.15;101935.66;5112512;28;20085;-79
2023/07/10 07:24:52;;;;;;;9.05;4.68;;;;;;;31.44;49.11;101946.19;5112312;28;20374;-81
2023/07/10 07:30:46;;;;;;;10.75;5.13;;;;;;;31.28;48.67;101951.44;5112457;28;20046;-80
2023/07/10 07:36:34;;;;;;;9.77;4.37;;;;;;;32.15;46.96;101963.06;5112523;28;20061;-80
2023/07/10 07:42:21;;;;;;;8.93;3.97;;;;;;;33.30;43.59;101969.13;5112419;28;20108;-81
2023/07/10 07:48:08;;;;;;;11.97;4.60;;;;;;;33.69;41.91;101961.41;5114682;28;20058;-81
2023/07/10 07:54:10;;;;;;;10.38;3.97;;;;;;;33.60;42.76;101961.50;5115696;28;20525;-82
2023/07/10 07:59:58;;;;;;;8.10;3.47;;;;;;;36.05;36.84;101961.72;5115657;28;20062;-80
2023/07/10 08:05:45;;;;;;;7.57;3.42;;;;;;;36.91;34.72;101965.31;5115874;28;20066;-82
2023/07/10 08:11:32;;;;;;;8.07;3.72;;;;;;;36.87;32.77;101954.09;5115734;28;20437;-82
2023/07/10 08:17:19;;;;;;;9.88;4.10;;;;;;;36.74;32.50;101954.56;5115593;28;20046;-81
2023/07/10 08:23:07;;;;;;;9.48;3.42;;;;;;;36.68;32.89;101948.47;5115152;28;20042;-82
2023/07/10 08:25:33;;;;;;;10.77;3.53;;;;;;;36.59;32.58;101951.47;5096346;28;20484;-83
2023/07/10 08:31:20;;;;;;;8.43;2.95;;;;;;;37.08;32.04;101952.91;5115324;28;20061;-81
2023/07/10 08:37:07;;;;;;;6.25;2.75;;;;;;;36.13;33.05;101952.34;5115359;28;20066;-82
2023/07/10 08:42:54;;;;;;;7.13;2.72;;;;;;;38.39;29.19;101952.41;5115276;28;20073;-82
2023/07/10 08:48:46;;;;;;;6.32;2.92;;;;;;;37.17;30.40;101951.50;5114165;28;20092;-81
2023/07/10 08:54:33;;;;;;;12.18;3.15;;;;;;;36.17;31.48;101947.69;5114721;28;20400;-82
2023/07/10 09:00:21;;;;;;;7.63;3.00;;;;;;;37.95;30.35;101938.19;5114745;28;20183;-84
2023/07/10 09:06:21;;;;;;;7.28;2.80;;;;;;;38.24;29.73;101942.25;5111328;28;20046;-83
2023/07/10 09:12:20;;;;;;;8.23;2.92;;;;;;;37.67;30.52;101958.03;5114579;28;20038;-81
2023/07/10 09:18:37;;;;;;;7.95;2.72;;;;;;;38.24;28.74;101961.81;5113876;28;20409;-83
2023/07/10 09:24:24;;;;;;;7.03;2.83;;;;;;;36.65;29.72;101946.41;5113572;28;20047;-82
2023/07/10 09:30:27;;;;;;;9.23;2.80;;;;;;;35.00;32.56;101950.94;5114057;28;20641;-83
2023/07/10 09:36:16;;;;;;;9.52;2.80;;;;;;;34.43;34.55;101954.78;5113614;28;20054;-83
2023/07/10 09:42:04;;;;;;;8.60;2.70;;;;;;;36.49;30.73;101951.25;5114301;28;20061;-82
2023/07/10 09:47:52;;;;;;;6.25;2.30;;;;;;;37.00;29.21;101937.19;5114546;28;20445;-81
2023/07/10 09:53:45;;;;;;;6.15;2.50;;;;;;;37.75;27.84;101954.19;5114469;28;20042;-80
2023/07/10 09:59:20;;;;;;;8.55;3.00;;;;;;;38.00;27.71;101953.81;5115264;28;19965;-82
2023/07/10 10:05:10;;;;;;;15.80;3.13;;;;;;;36.66;30.79;101950.00;5114629;28;20092;-82
2023/07/10 10:07:38;;;;;;;8.18;2.97;;;;;;;34.93;32.29;101948.75;5095483;28;20484;-82
2023/07/10 10:13:29;;;;;;;6.97;2.67;;;;;;;31.80;39.05;101934.72;5114257;28;20043;-81
2023/07/10 10:19:30;;;;;;;6.10;2.60;;;;;;;30.64;42.58;101931.91;5114175;28;20066;-82
2023/07/10 10:25:22;;;;;;;4.78;2.50;;;;;;;29.25;44.99;101932.41;5114333;28;20425;-83
2023/07/10 10:31:09;;;;;;;5.75;2.40;;;;;;;29.40;44.01;101925.69;5113787;28;20061;-81
2023/07/10 10:36:59;;;;;;;6.70;2.60;;;;;;;29.90;42.73;101929.88;5112686;28;20046;-81
2023/07/10 10:43:20;;;;;;;7.00;2.40;;;;;;;28.21;46.82;101925.88;5113558;28;20057;-82
2023/07/10 10:49:49;;;;;;;8.15;3.08;;;;;;;28.30;48.50;101917.75;5113590;28;20131;-81
2023/07/10 10:55:39;;;;;;;9.30;2.70;;;;;;;29.70;45.66;101915.81;5113519;28;20081;-81
2023/07/10 11:01:41;;;;;;;10.73;2.65;;;;;;;31.32;42.06;101946.88;5113460;28;20038;-81
2023/07/10 11:07:31;;;;;;;6.60;2.83;;;;;;;30.25;41.72;101935.53;5113036;28;20054;-83
2023/07/10 11:13:31;;;;;;;10.93;2.88;;;;;;;32.25;39.26;101936.94;5113275;28;20042;-83
2023/07/10 11:19:26;;;;;;;14.75;2.55;;;;;;;32.61;37.06;101939.19;5113456;28;20046;-81
2023/07/10 11:25:35;;;;;;;7.43;2.33;;;;;;;31.92;37.65;101931.25;5113387;28;20046;-82
2023/07/10 11:34:48;;;;;;;5.55;1.90;;;;;;;30.12;41.81;101908.88;5113382;28;20097;-80
2023/07/10 11:40:35;;;;;;;16.02;2.78;;;;;;;30.31;41.50;101909.41;5113640;28;20034;-83
2023/07/10 11:46:25;;;;;;;6.80;2.20;;;;;;;29.87;42.45;101896.59;5114072;28;20556;-78
2023/07/10 11:52:15;;;;;;;6.70;2.22;;;;;;;30.93;40.36;101911.91;5113173;28;20392;-78
2023/07/10 12:01:25;;;;;;;8.68;2.85;;;;;;;31.43;38.49;101909.44;5112130;28;20046;-78
2023/07/10 12:07:12;;;;;;;7.50;2.45;;;;;;;31.55;36.78;101900.47;5112742;28;20066;-77
2023/07/10 12:13:01;;;;;;;7.90;2.22;;;;;;;29.52;44.70;101898.41;5112525;28;20054;-78
2023/07/10 12:18:48;;;;;;;7.47;2.15;;;;;;;31.52;39.83;101895.59;5112166;28;20427;-77
2023/07/10 12:24:35;;;;;;;7.18;2.70;;;;;;;32.11;38.57;101892.09;5112457;28;20395;-78
2023/07/10 12:30:26;;;;;;;6.82;2.78;;;;;;;32.75;36.15;101891.81;5112093;28;20046;-77
2023/07/10 12:39:39;;;;;;;7.07;2.40;;;;;;;33.58;33.66;101882.53;5115272;28;20182;-79
2023/07/10 12:45:29;;;;;;;7.75;2.92;;;;;;;33.56;34.56;101875.38;5116580;28;20043;-79
2023/07/10 12:51:26;;;;;;;4.82;2.40;;;;;;;31.74;35.34;101875.19;5115475;28;20050;-79
2023/07/10 12:57:24;;;;;;;10.02;2.83;;;;;;;31.31;38.83;101867.03;5115234;28;20045;-78
2023/07/10 13:03:40;;;;;;;7.28;2.47;;;;;;;32.77;36.15;101851.53;5115474;28;20038;-77
2023/07/10 13:09:30;;;;;;;7.80;2.53;;;;;;;32.85;35.42;101869.25;5116071;28;20118;-78
2023/07/10 13:15:19;;;;;;;3.80;2.22;;;;;;;32.16;36.78;101859.50;5115447;28;20058;-78
2023/07/10 13:21:13;;;;;;;7.65;2.60;;;;;;;32.47;34.99;101861.91;5115193;28;20512;-79
2023/07/10 13:27:00;;;;;;;9.60;2.92;;;;;;;32.26;38.17;101853.59;5115131;28;20092;-78
2023/07/10 13:32:48;;;;;;;9.35;2.35;;;;;;;31.67;38.81;101852.75;5115120;28;20086;-78
2023/07/10 13:38:35;;;;;;;8.05;2.85;;;;;;;31.17;40.16;101839.56;5114994;28;20494;-77
2023/07/10 13:44:23;;;;;;;10.13;3.03;;;;;;;29.70;41.05;101844.13;5115005;28;20333;-78
2023/07/10 13:50:14;;;;;;;6.40;3.33;;;;;;;28.82;44.29;101844.72;5114596;28;20082;-78
2023/07/10 13:56:15;;;;;;;8.48;2.97;;;;;;;29.35;44.15;101835.69;5115967;28;20050;-78
2023/07/10 14:05:24;;;;;;;7.88;2.88;;;;;;;29.05;42.32;101826.28;5114123;28;20499;-78
2023/07/10 14:11:12;;;;;;;9.85;3.42;;;;;;;28.32;44.40;101819.19;5114064;28;20050;-79
2023/07/10 14:17:01;;;;;;;8.05;2.67;;;;;;;28.11;46.76;101840.03;5114438;28;20050;-78
2023/07/10 14:22:48;;;;;;;9.48;3.00;;;;;;;27.97;47.17;101818.84;5114269;28;20510;-77
2023/07/10 14:32:33;;;;;;;8.73;3.53;;;;;;;28.49;45.56;101808.34;5114047;28;20046;-77
2023/07/10 14:38:23;;;;;;;10.02;2.83;;;;;;;28.72;47.21;101806.44;5011855;28;20072;-76
2023/07/10 14:44:29;;;;;;;9.05;3.00;;;;;;;28.14;48.30;101798.16;5010945;28;20065;-76
2023/07/10 14:50:21;;;;;;;9.75;3.13;;;;;;;28.50;45.67;101798.16;5011103;28;20052;-76
2023/07/10 14:56:15;;;;;;;5.15;2.90;;;;;;;28.86;45.28;101787.09;5064153;28;20046;-77
2023/07/10 15:02:15;;;;;;;6.85;2.90;;;;;;;28.67;46.11;101779.03;5113880;28;20115;-74
2023/07/10 15:08:03;;;;;;;7.77;2.83;;;;;;;28.92;44.64;101764.66;5113593;28;20050;-74
2023/07/10 15:17:18;;;;;;;7.70;2.83;;;;;;;28.23;44.70;101755.81;5113310;28;20043;-77
2023/07/10 15:23:16;;;;;;;4.22;2.50;;;;;;;27.87;46.10;101750.31;5113510;28;20392;-75
2023/07/10 15:29:03;;;;;;;3.03;2.15;;;;;;;28.18;45.73;101741.38;5113517;28;20138;-77
2023/07/10 15:34:51;;;;;;;6.05;2.28;;;;;;;28.34;43.66;101748.19;5113320;28;20334;-79
2023/07/10 15:40:39;;;;;;;6.05;2.53;;;;;;;27.94;42.95;101733.41;5113068;28;20035;-80
2023/07/10 15:46:27;;;;;;;5.05;2.00;;;;;;;27.65;47.45;101728.25;5112797;28;20082;-79
2023/07/10 15:52:38;;;;;;;9.02;2.40;;;;;;;27.60;47.05;101720.91;5112874;28;20073;-76
2023/07/10 15:58:26;;;;;;;7.05;2.25;;;;;;;27.96;43.82;101720.16;5112869;28;20577;-78
2023/07/10 16:04:22;;;;;;;7.97;2.33;;;;;;;28.61;43.65;101720.50;5112617;28;20128;-77
2023/07/10 16:13:31;;;;;;;7.03;2.22;;;;;;;29.05;42.71;101699.56;5116290;28;20441;-77
2023/07/10 16:19:18;;;;;;;6.20;2.20;;;;;;;29.26;43.53;101694.31;5116332;28;20208;-80
2023/07/10 16:25:14;;;;;;;6.15;2.40;;;;;;;29.15;43.38;101684.69;5115894;28;20093;-76
2023/07/10 16:31:02;;;;;;;5.32;2.30;;;;;;;29.07;43.99;101679.97;5116068;28;20396;-77
2023/07/10 16:36:51;;;;;;;5.30;2.60;;;;;;;28.88;42.58;101672.75;5115787;28;20050;-77
2023/07/10 16:42:38;;;;;;;5.25;2.75;;;;;;;28.70;42.53;101676.53;5116056;28;20059;-79
2023/07/10 16:48:27;;;;;;;5.78;2.40;;;;;;;27.92;44.68;101669.66;5114967;28;20030;-78
2023/07/10 16:54:14;;;;;;;5.03;2.40;;;;;;;27.47;47.28;101666.81;5115698;28;20045;-77
2023/07/10 17:00:01;;;;;;;6.35;3.00;;;;;;;27.76;47.14;101666.47;5115232;28;20392;-78
2023/07/10 17:05:48;;;;;;;13.90;6.78;;;;;;;28.02;47.75;101659.22;5115221;28;20205;-77
2023/07/10 17:11:39;;;;;;;4.88;2.50;;;;;;;27.60;46.85;101665.13;5115504;28;20043;-77
2023/07/10 17:17:26;;;;;;;27.13;19.88;;;;;;;27.43;48.85;101658.34;5115339;28;20376;-78
2023/07/10 17:23:18;;;;;;;8.88;3.40;;;;;;;27.50;50.34;101649.69;5115069;28;20280;-77
2023/07/10 17:29:14;;;;;;;4.43;2.22;;;;;;;27.28;49.96;101644.94;5114795;28;20050;-77
2023/07/10 17:35:05;;;;;;;5.93;2.55;;;;;;;27.02;50.93;101638.34;5114897;28;20376;-76
2023/07/10 17:40:52;;;;;;;5.22;3.47;;;;;;;26.78;52.76;101638.50;5114789;28;20116;-77
2023/07/10 17:46:40;;;;;;;14.48;9.60;;;;;;;26.70;52.94;101628.22;5114080;28;20050;-76
2023/07/10 17:52:27;;;;;;;7.97;2.88;;;;;;;26.70;52.13;101618.06;5114126;28;20131;-76
2023/07/10 17:58:17;;;;;;;10.60;2.75;;;;;;;26.73;52.75;101630.38;5114279;28;20092;-77
2023/07/10 18:04:04;;;;;;;5.68;3.30;;;;;;;26.70;56.94;101626.31;5114417;28;20058;-77
2023/07/10 18:09:51;;;;;;;6.80;2.70;;;;;;;26.75;54.91;101623.44;5114496;28;20486;-78
2023/07/10 18:15:39;;;;;;;5.07;2.65;;;;;;;26.58;58.24;101619.66;5114116;28;20053;-78
2023/07/10 18:21:28;;;;;;;7.18;2.97;;;;;;;26.09;61.99;101627.34;5113747;28;20074;-77
2023/07/10 18:27:18;;;;;;;6.40;2.90;;;;;;;25.88;64.42;101615.06;5113877;28;20046;-77
2023/07/10 18:33:13;;;;;;;5.03;2.90;;;;;;;25.79;64.83;101603.97;5113377;28;20524;-75
2023/07/10 18:39:01;;;;;;;5.80;2.85;;;;;;;25.67;67.01;101609.06;5113420;28;20658;-78
2023/07/10 18:44:47;;;;;;;6.97;2.70;;;;;;;25.31;71.42;101595.88;5112607;28;20466;-79
2023/07/10 18:50:34;;;;;;;6.03;2.97;;;;;;;25.07;75.14;101603.28;5113466;28;20038;-79
2023/07/10 18:56:22;;;;;;;7.10;2.28;;;;;;;24.69;80.21;101588.66;5112935;28;20272;-79
2023/07/10 19:02:09;;;;;;;8.70;3.03;;;;;;;24.36;85.75;101593.13;5112725;28;20076;-78
2023/07/10 19:07:56;;;;;;;8.70;2.97;;;;;;;24.28;83.76;101583.59;5113187;28;20272;-79
2023/07/10 19:13:44;;;;;;;3.58;2.58;;;;;;;24.25;84.12;101586.06;5112824;28;20058;-78
2023/07/10 19:19:34;;;;;;;4.60;2.95;;;;;;;24.03;85.03;101570.97;5112684;28;20053;-78
2023/07/10 19:25:21;;;;;;;6.68;2.88;;;;;;;23.84;84.60;101577.41;5108428;28;20080;-78
2023/07/10 19:31:12;;;;;;;4.55;2.90;;;;;;;23.72;85.47;101559.47;5112792;28;20310;-78
2023/07/10 19:36:59;;;;;;;5.72;3.00;;;;;;;23.57;86.66;101548.63;5112667;28;20469;-75
2023/07/10 19:42:46;;;;;;;7.15;2.88;;;;;;;23.38;89.14;101564.00;5115188;28;20710;-77
2023/07/10 19:48:35;;;;;;;9.35;3.60;;;;;;;22.99;93.16;101559.31;5119452;28;20084;-76
2023/07/10 19:54:23;;;;;;;6.95;3.40;;;;;;;22.83;95.22;101564.00;5119017;28;20124;-75
2023/07/10 20:00:19;;;;;;;8.35;3.25;;;;;;;22.73;95.55;101557.75;5119003;28;20486;-76
2023/07/10 20:06:30;;;;;;;7.38;3.05;;;;;;;22.51;96.19;101553.44;5119263;28;20050;-75
2023/07/10 20:12:20;;;;;;;10.30;3.30;;;;;;;22.43;97.21;101545.00;5119035;28;20038;-74
2023/07/10 20:18:17;;;;;;;9.43;3.30;;;;;;;22.30;97.98;101540.97;5119049;28;20069;-75
2023/07/10 20:24:08;;;;;;;6.25;3.65;;;;;;;22.15;100.00;101528.16;5118976;28;20131;-76
2023/07/10 20:29:56;;;;;;;11.45;3.65;;;;;;;22.06;100.00;101534.44;5118816;28;20051;-76
2023/07/10 20:35:43;;;;;;;11.30;3.15;;;;;;;21.83;100.00;101533.88;5119141;28;20045;-75
2023/07/10 20:41:30;;;;;;;8.60;3.83;;;;;;;21.59;100.00;101527.31;5118572;27;20119;-74
2023/07/10 20:47:17;;;;;;;8.48;4.15;;;;;;;21.27;100.00;101525.63;5118707;28;20055;-75
2023/07/10 20:53:11;;;;;;;7.20;3.47;;;;;;;21.15;100.00;101527.75;5118629;27;20071;-76
2023/07/10 20:59:01;;;;;;;14.80;3.75;;;;;;;21.00;100.00;101522.25;5115280;28;20138;-76
2023/07/10 21:04:48;;;;;;;8.90;3.55;;;;;;;20.82;100.00;101518.13;5115516;28;20065;-76
2023/07/10 21:10:35;;;;;;;5.57;3.63;;;;;;;20.71;100.00;101517.25;5114809;28;20272;-75
2023/07/10 21:16:27;;;;;;;9.38;3.58;;;;;;;20.64;100.00;101508.53;5115020;28;20074;-76
2023/07/10 21:22:16;;;;;;;5.82;3.33;;;;;;;20.60;100.00;101510.16;5114697;28;20490;-75
2023/07/10 21:28:04;;;;;;;7.68;3.72;;;;;;;20.56;100.00;101511.75;5114843;28;20042;-75
2023/07/10 21:33:52;;;;;;;9.18;4.05;;;;;;;20.47;100.00;101504.34;5114690;28;20034;-75
2023/07/10 21:39:39;;;;;;;8.32;3.80;;;;;;;20.45;100.00;101499.19;5115492;28;20043;-74
2023/07/10 21:45:27;;;;;;;8.00;3.92;;;;;;;20.25;100.00;101501.78;5113959;28;20515;-75
2023/07/10 21:51:14;;;;;;;8.38;3.97;;;;;;;20.04;100.00;101501.63;5113951;28;20039;-74
2023/07/10 21:57:01;;;;;;;9.15;3.50;;;;;;;20.00;100.00;101500.53;5114445;28;20392;-74
2023/07/10 21:59:30;;;;;;;6.65;4.05;;;;;;;19.97;100.00;101500.22;5095073;28;20036;-75
2023/07/10 22:05:18;;;;;;;8.02;4.38;;;;;;;19.89;100.00;101492.53;5110231;28;20038;-75
2023/07/10 22:11:28;;;;;;;9.70;4.03;;;;;;;19.94;100.00;101498.00;5114007;28;20050;-76
2023/07/10 22:17:21;;;;;;;10.32;4.22;;;;;;;19.81;100.00;101499.28;5114272;28;20042;-76
2023/07/10 22:19:55;;;;;;;7.63;4.05;;;;;;;19.76;100.00;101494.63;5088199;28;20168;-77
2023/07/10 22:25:42;;;;;;;7.32;3.88;;;;;;;19.76;100.00;101482.97;5114164;28;20034;-76
2023/07/10 22:28:12;;;;;;;8.05;4.50;;;;;;;19.76;100.00;101491.09;5113426;28;20042;-77
2023/07/10 22:33:59;;;;;;;7.95;4.47;;;;;;;19.57;100.00;101479.81;5113348;28;20061;-75
2023/07/10 22:39:46;;;;;;;9.77;4.75;;;;;;;19.35;100.00;101479.84;5113530;28;20391;-76
2023/07/10 22:45:33;;;;;;;7.35;4.20;;;;;;;19.17;100.00;101474.78;5113303;28;20347;-75
2023/07/10 22:47:58;;;;;;;8.13;3.88;;;;;;;19.22;100.00;101466.72;5095054;28;20031;-75
2023/07/10 22:50:24;;;;;;;11.77;4.78;;;;;;;19.24;100.00;101469.97;5112423;28;20040;-76
2023/07/10 22:56:31;;;;;;;6.15;4.28;;;;;;;19.15;100.00;101460.69;5113512;28;20049;-75
2023/07/10 23:02:18;;;;;;;7.38;4.65;;;;;;;19.03;100.00;101449.16;5113115;28;20050;-75
2023/07/10 23:04:44;;;;;;;8.32;4.75;;;;;;;18.99;100.00;101450.72;5112283;28;20043;-75
2023/07/10 23:07:09;;;;;;;7.00;4.30;;;;;;;19.02;100.00;101451.03;5112906;28;20034;-75
2023/07/10 23:16:36;;;;;;;8.27;4.68;;;;;;;19.01;100.00;101443.97;5113333;28;20395;-75
2023/07/10 23:22:23;;;;;;;10.40;4.47;;;;;;;18.99;100.00;101440.72;5112873;28;20096;-76
2023/07/10 23:24:48;;;;;;;9.65;4.55;;;;;;;18.96;100.00;101432.28;5112072;28;20043;-75
2023/07/10 23:27:15;;;;;;;7.23;4.47;;;;;;;18.97;100.00;101426.59;5094465;28;20066;-76
2023/07/10 23:33:02;;;;;;;8.10;4.45;;;;;;;18.94;100.00;101429.81;5113025;28;20084;-76
2023/07/10 23:38:51;;;;;;;7.63;4.20;;;;;;;18.87;100.00;101434.63;5112813;28;20069;-75
2023/07/10 23:41:17;;;;;;;7.93;4.38;;;;;;;18.73;100.00;101423.34;5094139;28;20031;-74
2023/07/10 23:43:43;;;;;;;5.20;4.22;;;;;;;18.53;100.00;101410.38;5093621;28;20065;-75
2023/07/10 23:49:30;;;;;;;6.93;4.38;;;;;;;18.45;100.00;101408.09;5112651;28;20046;-74
2023/07/10 23:55:17;;;;;;;7.10;4.35;;;;;;;18.25;100.00;101408.69;5112438;28;20629;-75
2023/07/10 23:57:45;;;;;;;9.38;4.75;;;;;;;18.20;100.00;101410.47;5111469;28;20032;-74
